.
WxDataArchive / Data Records for 2010-10-13
2010-10-12 October 2010 2010-10-14

Data Records for Wednesday, 13 October 2010

Time	Temp	Chill	HIndex	Humid	Dewpt	 Wind 	HiWind	WindDir	Rain 	Barom 
-----	----	-----	------	-----	-----	------	------	-------	-----	----- 
00:00	54.2	54.2	54.2	68	43.9	0	1	90	0.00	29.990 
00:05	54.2	54.2	54.2	69	44.3	0	1	---	0.00	29.990 
00:10	54.1	54.1	54.1	69	44.2	0	1	90	0.00	29.990 
00:15	53.9	53.9	53.9	69	44.0	0	2	90	0.00	29.988 
00:20	53.8	53.8	53.8	69	43.9	0	1	90	0.00	29.988 
00:25	53.8	53.8	53.8	70	44.2	0	1	90	0.00	29.988 
00:30	53.6	53.6	53.6	70	44.1	0	1	90	0.00	29.990 
00:35	53.5	53.5	53.5	70	44.0	0	1	90	0.00	29.990 
00:40	53.3	53.3	53.3	70	43.8	0	1	90	0.00	29.990 
00:45	53.3	53.3	53.3	70	43.8	0	2	90	0.00	29.990 
00:50	53.2	53.2	53.2	70	43.7	0	1	90	0.00	29.990 
00:55	53.1	53.1	53.1	71	43.9	0	0	---	0.00	29.990 
01:00	52.9	52.9	52.9	71	43.8	0	1	90	0.00	29.988 
01:05	52.9	52.9	52.9	70	43.4	0	2	90	0.00	29.988 
01:10	52.8	52.8	52.8	70	43.3	0	0	---	0.00	29.988 
01:15	52.6	52.6	52.6	70	43.1	0	0	---	0.00	29.987 
01:20	52.5	52.5	52.5	71	43.4	0	0	---	0.00	29.987 
01:25	52.3	52.3	52.3	72	43.5	0	0	---	0.00	29.987 
01:30	52.2	52.2	52.2	72	43.4	0	1	90	0.00	29.987 
01:35	52.0	52.0	52.0	72	43.3	0	0	---	0.00	29.987 
01:40	51.9	51.9	51.9	73	43.5	0	0	---	0.00	29.987 
01:45	51.7	51.7	51.7	73	43.3	0	1	90	0.00	29.988 
01:50	51.6	51.6	51.6	73	43.2	0	0	---	0.00	29.988 
01:55	51.4	51.4	51.4	73	43.0	0	0	---	0.00	29.988 
02:00	51.3	51.3	51.3	73	42.9	0	0	---	0.00	29.990 
02:05	51.3	51.3	51.3	74	43.3	0	0	---	0.00	29.990 
02:10	51.1	51.1	51.1	74	43.1	0	0	---	0.00	29.990 
02:15	51.0	51.0	51.0	75	43.4	0	0	---	0.00	29.987 
02:20	51.0	51.0	51.0	75	43.4	0	1	90	0.00	29.987 
02:25	50.8	50.8	50.8	75	43.2	0	0	---	0.00	29.987 
02:30	50.8	50.8	50.8	75	43.2	0	0	---	0.00	29.986 
02:35	50.7	50.7	50.7	75	43.1	0	0	---	0.00	29.986 
02:40	50.5	50.5	50.5	76	43.2	0	0	---	0.00	29.986 
02:45	50.4	50.4	50.4	76	43.1	0	0	---	0.00	29.987 
02:50	50.2	50.2	50.2	76	42.9	0	0	---	0.00	29.987 
02:55	50.1	50.1	50.1	77	43.2	0	0	---	0.00	29.987 
03:00	49.8	49.8	49.8	77	42.9	0	0	---	0.00	29.988 
03:05	49.6	49.6	49.6	77	42.7	0	0	---	0.00	29.988 
03:10	49.5	49.5	49.5	78	42.9	0	0	---	0.00	29.988 
03:15	49.5	49.5	49.5	78	42.9	0	0	---	0.00	29.987 
03:20	49.4	49.4	49.4	78	42.8	0	0	---	0.00	29.987 
03:25	49.2	49.2	49.2	79	43.0	0	0	---	0.00	29.987 
03:30	49.1	49.1	49.1	79	42.9	0	0	---	0.00	29.989 
03:35	48.9	48.9	48.9	79	42.7	0	0	---	0.00	29.989 
03:40	48.8	48.8	48.8	79	42.6	0	0	---	0.00	29.989 
03:45	48.6	48.6	48.6	80	42.7	0	0	---	0.00	29.989 
03:50	48.5	48.5	48.5	80	42.6	0	0	---	0.00	29.989 
03:55	48.3	48.3	48.3	81	42.7	0	0	---	0.00	29.989 
04:00	48.2	48.2	48.2	81	42.6	0	0	---	0.00	29.987 
04:05	48.0	48.0	48.0	81	42.5	0	0	---	0.00	29.987 
04:10	47.7	47.7	47.7	82	42.5	0	0	---	0.00	29.987 
04:15	47.7	47.7	47.7	82	42.5	0	0	---	0.00	29.988 
04:20	47.4	47.4	47.4	83	42.5	0	0	---	0.00	29.988 
04:25	47.3	47.3	47.3	84	42.7	0	0	---	0.00	29.988 
04:30	47.1	47.1	47.1	84	42.5	0	0	---	0.00	29.991 
04:35	47.0	47.0	47.0	84	42.4	0	0	---	0.00	29.991 
04:40	47.0	47.0	47.0	84	42.4	0	0	---	0.00	29.991 
04:45	46.8	46.8	46.8	85	42.5	0	0	---	0.00	29.991 
04:50	46.7	46.7	46.7	85	42.4	0	0	---	0.00	29.991 
04:55	46.5	46.5	46.5	86	42.5	0	0	---	0.00	29.991 
05:00	46.5	46.5	46.5	86	42.5	0	0	---	0.00	29.989 
05:05	46.4	46.4	46.4	86	42.4	0	0	---	0.00	29.989 
05:10	46.4	46.4	46.4	86	42.4	0	0	---	0.00	29.989 
05:15	46.2	46.2	46.2	87	42.5	0	0	---	0.00	29.992 
05:20	46.2	46.2	46.2	87	42.5	0	0	---	0.00	29.992 
05:25	46.2	46.2	46.2	87	42.5	0	0	---	0.00	29.992 
05:30	46.2	46.2	46.2	87	42.5	0	0	---	0.00	29.993 
05:35	46.2	46.2	46.2	87	42.5	0	0	---	0.00	29.993 
05:40	46.1	46.1	46.1	87	42.4	0	0	---	0.00	29.993 
05:45	46.0	46.0	46.0	87	42.4	0	0	---	0.00	29.994 
05:50	46.0	46.0	46.0	87	42.4	0	0	---	0.00	29.994 
05:55	46.0	46.0	46.0	87	42.4	0	0	---	0.00	29.994 
06:00	46.0	46.0	46.0	87	42.4	0	0	---	0.00	29.992 
06:05	45.8	45.8	45.8	87	42.2	0	0	---	0.00	29.992 
06:10	45.8	45.8	45.8	87	42.2	0	0	---	0.00	29.992 
06:15	45.7	45.7	45.7	87	42.1	0	0	---	0.00	29.990 
06:20	45.7	45.7	45.7	87	42.1	0	0	---	0.00	29.990 
06:25	45.7	45.7	45.7	87	42.1	0	0	---	0.00	29.990 
06:30	45.7	45.7	45.7	87	42.1	0	0	---	0.00	29.986 
06:35	45.7	45.7	45.7	87	42.1	0	0	---	0.00	29.986 
06:40	45.7	45.7	45.7	87	42.1	0	0	---	0.00	29.986 
06:45	45.7	45.7	45.7	87	42.1	0	0	---	0.00	29.990 
06:50	45.7	45.7	45.7	87	42.1	0	0	---	0.00	29.990 
06:55	45.7	45.7	45.7	87	42.1	0	0	---	0.00	29.990 
07:00	45.5	45.5	45.5	88	42.2	0	0	---	0.00	29.994 
07:05	45.5	45.5	45.5	88	42.2	0	0	---	0.00	29.994 
07:10	45.5	45.5	45.5	88	42.2	0	0	---	0.00	29.994 
07:15	45.5	45.5	45.5	88	42.2	0	0	---	0.00	30.000 
07:20	45.7	45.7	45.7	88	42.4	0	0	---	0.00	30.000 
07:25	45.7	45.7	45.7	88	42.4	0	0	---	0.00	30.000 
07:30	45.7	45.7	45.7	88	42.4	0	0	---	0.00	30.003 
07:35	45.7	45.7	45.7	88	42.4	0	0	---	0.00	30.003 
07:40	45.7	45.7	45.7	88	42.4	0	0	---	0.00	30.003 
07:45	45.5	45.5	45.5	88	42.2	0	0	---	0.00	30.005 
07:50	45.5	45.5	45.5	88	42.2	0	0	---	0.00	30.005 
07:55	45.4	45.4	45.4	88	42.1	0	0	---	0.00	30.005 
08:00	45.4	45.4	45.4	88	42.1	0	0	---	0.00	30.010 
08:05	45.4	45.4	45.4	88	42.1	0	0	---	0.00	30.010 
08:10	45.4	45.4	45.4	88	42.1	0	0	---	0.00	30.010 
08:15	45.4	45.4	45.4	88	42.1	0	0	---	0.00	30.011 
08:20	45.7	45.7	45.7	88	42.4	0	0	---	0.00	30.011 
08:25	46.0	46.0	46.0	88	42.6	0	0	---	0.00	30.011 
08:30	46.2	46.2	46.2	87	42.5	0	0	---	0.00	30.012 
08:35	46.7	46.7	46.7	85	42.4	0	0	---	0.00	30.012 
08:40	47.1	47.1	47.1	84	42.5	0	0	---	0.00	30.012 
08:45	47.4	47.4	47.4	84	42.8	0	0	---	0.00	30.013 
08:50	47.9	47.9	47.9	84	43.3	0	0	---	0.00	30.013 
08:55	48.2	48.2	48.2	83	43.3	0	0	---	0.00	30.013 
09:00	48.5	48.5	48.5	83	43.6	0	0	---	0.00	30.016 
09:05	48.9	48.9	48.9	82	43.6	0	0	---	0.00	30.016 
09:10	49.2	49.2	49.2	81	43.6	0	1	90	0.00	30.016 
09:15	49.6	49.6	49.6	80	43.7	0	0	---	0.00	30.029 
09:20	49.9	49.9	49.9	79	43.6	0	1	90	0.00	30.029 
09:25	50.2	50.2	50.2	78	43.6	0	1	90	0.00	30.029 
09:30	50.5	50.5	50.5	77	43.6	0	2	90	0.00	30.032 
09:35	50.7	50.7	50.7	77	43.8	0	2	90	0.00	30.032 
09:40	51.0	51.0	51.0	76	43.7	0	1	90	0.00	30.032 
09:45	51.1	51.1	51.1	76	43.8	0	2	90	0.00	30.032 
09:50	51.4	51.4	51.4	75	43.7	0	2	90	0.00	30.032 
09:55	51.7	51.7	51.7	75	44.0	0	1	90	0.00	30.032 
10:00	52.2	52.2	52.2	74	44.2	0	1	90	0.00	30.035 
10:05	52.8	52.8	52.8	73	44.4	1	2	90	0.00	30.035 
10:10	53.2	53.2	53.2	73	44.8	1	3	90	0.00	30.035 
10:15	53.5	53.5	53.5	71	44.3	0	1	90	0.00	30.031 
10:20	53.6	53.6	53.6	71	44.4	0	1	90	0.00	30.031 
10:25	53.8	53.8	53.8	71	44.6	0	1	90	0.00	30.031 
10:30	54.1	54.1	54.1	70	44.5	0	2	90	0.00	30.028 
10:35	54.4	54.4	54.4	69	44.4	0	2	90	0.00	30.028 
10:40	54.5	54.5	54.5	69	44.5	0	2	90	0.00	30.028 
10:45	54.8	54.8	54.8	69	44.8	0	1	90	0.00	30.016 
10:50	55.1	55.1	55.1	69	45.1	0	1	90	0.00	30.016 
10:55	55.4	55.4	55.4	70	45.8	0	1	90	0.00	30.016 
11:00	55.7	55.7	55.7	68	45.3	0	3	90	0.00	30.012 
11:05	56.2	56.2	56.2	65	44.6	0	2	90	0.00	30.012 
11:10	56.6	56.6	56.6	63	44.2	0	3	90	0.00	30.012 
11:15	57.2	57.2	57.2	64	45.1	0	2	90	0.00	30.013 
11:20	57.8	57.8	57.8	59	43.6	0	2	90	0.00	30.013 
11:25	58.7	58.7	58.7	59	44.4	0	1	90	0.00	30.013 
11:30	59.8	59.8	59.8	55	43.6	0	2	180	0.00	30.007 
11:35	60.7	60.7	60.7	54	44.0	0	1	0	0.00	30.007 
11:40	61.6	61.6	61.6	52	43.8	1	4	0	0.00	30.007 
11:45	62.7	62.7	62.7	50	43.8	0	2	112	0.00	29.998 
11:50	63.2	63.2	63.2	51	44.8	0	1	112	0.00	29.998 
11:55	63.5	63.5	63.5	50	44.5	0	2	112	0.00	29.998 
12:00	63.9	63.9	63.9	50	44.9	0	3	112	0.00	29.993 
12:05	64.2	64.2	64.2	50	45.2	0	1	112	0.00	29.993 
12:10	64.7	64.7	64.7	49	45.1	0	1	112	0.00	29.993 
12:15	65.0	65.0	65.0	49	45.4	0	1	112	0.00	29.989 
12:20	65.2	65.2	65.2	48	45.0	0	2	112	0.00	29.989 
12:25	65.3	65.3	65.3	47	44.5	0	2	112	0.00	29.989 
12:30	65.5	65.5	65.5	47	44.7	0	1	112	0.00	29.989 
12:35	65.5	65.5	65.5	47	44.7	0	1	112	0.00	29.989 
12:40	66.0	66.0	66.0	46	44.6	0	1	112	0.00	29.989 
12:45	67.1	67.1	67.1	46	45.6	0	1	112	0.00	29.993 
12:50	67.8	67.8	67.8	45	45.7	0	2	112	0.00	29.993 
12:55	68.4	68.4	68.4	43	45.0	0	1	112	0.00	29.993 
13:00	68.8	68.8	68.8	45	46.6	0	2	112	0.00	29.988 
13:05	68.9	68.9	68.9	44	46.1	1	3	112	0.00	29.988 
13:10	69.3	69.3	69.3	44	46.4	1	3	112	0.00	29.988 
13:15	69.8	69.8	69.8	43	46.3	0	3	112	0.00	29.989 
13:20	70.1	70.1	70.1	42	45.9	1	3	112	0.00	29.989 
13:25	70.4	70.4	70.4	42	46.2	0	1	112	0.00	29.989 
13:30	70.8	70.8	70.8	42	46.6	0	2	112	0.00	29.981 
13:35	70.9	70.9	70.9	43	47.3	0	1	112	0.00	29.981 
13:40	71.1	71.1	71.1	43	47.5	0	1	112	0.00	29.981 
13:45	71.3	71.3	71.3	42	47.0	0	1	158	0.00	29.974 
13:50	71.5	71.5	71.5	42	47.2	0	0	---	0.00	29.974 
13:55	71.6	71.6	71.6	42	47.3	0	0	---	0.00	29.974 
14:00	71.5	71.5	71.5	42	47.2	0	1	158	0.00	29.969 
14:05	71.5	71.5	71.5	42	47.2	0	1	158	0.00	29.969 
14:10	71.1	71.1	71.1	42	46.8	0	1	158	0.00	29.969 
14:15	71.1	71.1	71.1	43	47.5	1	3	270	0.00	29.966 
14:20	71.1	71.1	71.1	44	48.1	1	3	270	0.00	29.966 
14:25	71.5	71.5	71.5	43	47.8	0	2	270	0.00	29.966 
14:30	71.8	71.8	71.8	44	48.7	0	1	270	0.00	29.957 
14:35	72.3	72.3	72.3	42	47.9	0	2	270	0.00	29.957 
14:40	72.8	72.8	72.8	41	47.7	0	1	270	0.00	29.957 
14:45	72.8	72.8	72.8	41	47.7	0	3	338	0.00	29.955 
14:50	72.3	72.3	72.3	42	47.9	1	3	292	0.00	29.955 
14:55	72.0	72.0	72.0	43	48.3	0	2	338	0.00	29.955 
15:00	72.1	72.1	72.1	43	48.4	1	3	338	0.00	29.948 
15:05	72.3	72.3	72.3	43	48.5	1	3	292	0.00	29.948 
15:10	72.5	72.5	72.5	41	47.4	1	4	292	0.00	29.948 
15:15	72.3	72.3	72.3	42	47.9	1	5	270	0.00	29.941 
15:20	71.8	71.8	71.8	43	48.1	2	5	315	0.00	29.941 
15:25	71.6	71.6	71.6	44	48.5	1	4	292	0.00	29.941 
15:30	71.8	71.8	71.8	44	48.7	2	6	338	0.00	29.940 
15:35	72.3	72.3	72.3	43	48.5	1	4	338	0.00	29.940 
15:40	71.8	71.8	71.8	43	48.1	2	6	270	0.00	29.940 
15:45	71.3	71.3	71.3	44	48.2	2	6	338	0.00	29.939 
15:50	70.9	70.9	70.9	46	49.1	1	4	315	0.00	29.939 
15:55	70.8	70.8	70.8	48	50.1	1	4	0	0.00	29.939 
16:00	70.8	70.8	70.8	51	51.8	1	4	292	0.00	29.942 
16:05	70.8	70.8	70.8	54	53.3	1	4	0	0.00	29.942 
16:10	70.3	70.3	70.3	54	52.9	1	4	315	0.00	29.942 
16:15	69.9	69.9	69.9	54	52.5	1	5	315	0.00	29.944 
16:20	69.8	69.8	69.8	54	52.4	1	5	0	0.00	29.944 
16:25	69.3	69.3	69.3	54	51.9	1	3	0	0.00	29.944 
16:30	68.9	68.9	68.9	53	51.1	1	5	338	0.00	29.945 
16:35	68.8	68.8	68.8	52	50.4	1	3	338	0.00	29.945 
16:40	68.6	68.6	68.6	53	50.8	2	4	338	0.00	29.945 
16:45	68.3	68.3	68.3	54	51.0	2	7	292	0.00	29.947 
16:50	67.9	67.9	67.9	55	51.1	1	5	315	0.00	29.947 
16:55	67.8	67.8	67.8	55	51.0	1	5	270	0.00	29.947 
17:00	67.4	67.4	67.4	56	51.1	0	2	270	0.00	29.947 
17:05	67.3	67.3	67.3	57	51.5	0	3	270	0.00	29.947 
17:10	66.9	66.9	66.9	57	51.2	1	3	270	0.00	29.947 
17:15	66.6	66.6	66.6	57	50.9	1	4	315	0.00	29.949 
17:20	66.3	66.3	66.3	58	51.1	1	3	315	0.00	29.949 
17:25	66.0	66.0	66.0	60	51.7	1	4	315	0.00	29.949 
17:30	65.8	65.8	65.8	61	52.0	1	3	315	0.00	29.963 
17:35	65.6	65.6	65.6	62	52.2	2	6	315	0.00	29.963 
17:40	65.3	65.3	65.3	63	52.4	2	5	292	0.00	29.963 
17:45	65.0	65.0	65.0	63	52.1	2	5	292	0.00	29.965 
17:50	64.8	64.8	64.8	64	52.3	1	4	292	0.00	29.965 
17:55	64.3	64.3	64.3	65	52.3	2	5	292	0.00	29.965 
18:00	63.9	63.9	63.9	67	52.7	2	6	315	0.00	29.970 
18:05	63.7	63.7	63.7	67	52.5	1	3	315	0.00	29.970 
18:10	63.4	63.4	63.4	69	53.0	1	3	338	0.00	29.970 
18:15	63.2	63.2	63.2	71	53.6	0	2	270	0.00	29.974 
18:20	62.6	62.6	62.6	72	53.4	1	3	315	0.00	29.974 
18:25	62.3	62.3	62.3	73	53.5	0	2	292	0.00	29.974 
18:30	62.0	62.0	62.0	73	53.2	0	2	292	0.00	29.966 
18:35	61.8	61.8	61.8	74	53.4	0	1	292	0.00	29.966 
18:40	61.6	61.6	61.6	77	54.3	0	1	292	0.00	29.966 
18:45	61.0	61.0	61.0	79	54.4	0	1	292	0.00	29.984 
18:50	60.7	60.7	60.7	80	54.5	0	1	292	0.00	29.984 
18:55	60.4	60.4	60.4	81	54.5	0	2	292	0.00	29.984 
19:00	60.1	60.1	60.1	81	54.2	0	2	292	0.00	29.998 
19:05	60.1	60.1	60.1	82	54.6	0	1	292	0.00	29.998 
19:10	59.9	59.9	59.9	83	54.7	0	3	292	0.00	29.998 
19:15	59.8	59.8	59.8	83	54.6	0	2	315	0.00	30.000 
19:20	59.5	59.5	59.5	84	54.7	0	2	315	0.00	30.000 
19:25	59.3	59.3	59.3	84	54.5	0	2	338	0.00	30.000 
19:30	59.0	59.0	59.0	84	54.2	0	3	338	0.00	30.011 
19:35	58.9	58.9	58.9	84	54.1	0	1	315	0.00	30.011 
19:40	58.7	58.7	58.7	84	53.9	0	3	315	0.00	30.011 
19:45	58.6	58.6	58.6	84	53.8	0	1	315	0.00	30.017 
19:50	58.4	58.4	58.4	84	53.6	0	3	315	0.00	30.017 
19:55	58.3	58.3	58.3	84	53.5	1	2	315	0.00	30.017 
20:00	58.1	58.1	58.1	84	53.3	0	2	315	0.00	30.019 
20:05	58.1	58.1	58.1	84	53.3	0	2	315	0.00	30.019 
20:10	58.0	58.0	58.0	84	53.2	1	4	315	0.00	30.019 
20:15	58.0	58.0	58.0	84	53.2	0	2	22	0.00	30.023 
20:20	57.8	57.8	57.8	84	53.0	0	3	0	0.00	30.023 
20:25	57.8	57.8	57.8	84	53.0	1	3	315	0.00	30.023 
20:30	57.6	57.6	57.6	84	52.8	0	3	292	0.00	30.021 
20:35	57.6	57.6	57.6	84	52.8	0	1	292	0.00	30.021 
20:40	57.6	57.6	57.6	85	53.1	1	3	292	0.00	30.021 
20:45	57.5	57.5	57.5	85	53.0	0	2	292	0.00	30.028 
20:50	57.5	57.5	57.5	84	52.7	1	2	292	0.00	30.028 
20:55	57.5	57.5	57.5	85	53.0	0	3	292	0.00	30.028 
21:00	57.5	57.5	57.5	85	53.0	0	2	292	0.00	30.028 
21:05	57.3	57.3	57.3	84	52.5	0	2	292	0.00	30.028 
21:10	57.3	57.3	57.3	84	52.5	0	3	292	0.00	30.028 
21:15	57.3	57.3	57.3	84	52.5	0	2	292	0.00	30.028 
21:20	57.3	57.3	57.3	84	52.5	0	1	292	0.00	30.028 
21:25	57.2	57.2	57.2	85	52.7	0	2	292	0.00	30.028 
21:30	57.2	57.2	57.2	84	52.4	1	3	292	0.00	30.028 
21:35	57.0	57.0	57.0	84	52.2	1	3	292	0.00	30.028 
21:40	57.0	57.0	57.0	84	52.2	1	3	292	0.00	30.028 
21:45	57.0	57.0	57.0	84	52.2	0	1	292	0.00	30.029 
21:50	57.0	57.0	57.0	84	52.2	0	1	292	0.00	30.029 
21:55	56.9	56.9	56.9	84	52.1	1	4	292	0.00	30.029 
22:00	56.6	56.6	56.6	83	51.5	2	4	292	0.00	30.030 
22:05	56.3	56.3	56.3	81	50.5	1	5	292	0.00	30.030 
22:10	56.2	56.2	56.2	80	50.1	1	3	292	0.01	30.030 
22:15	56.0	56.0	56.0	77	48.9	1	4	292	0.00	30.029 
22:20	55.9	55.9	55.9	75	48.1	1	4	338	0.00	30.029 
22:25	55.9	55.9	55.9	75	48.1	1	3	315	0.00	30.029 
22:30	55.9	55.9	55.9	75	48.1	1	3	338	0.00	30.027 
22:35	55.9	55.9	55.9	74	47.7	1	4	270	0.00	30.027 
22:40	55.7	55.7	55.7	74	47.5	1	3	270	0.00	30.027 
22:45	55.7	55.7	55.7	74	47.5	1	3	338	0.00	30.028 
22:50	55.6	55.6	55.6	74	47.4	1	4	315	0.00	30.028 
22:55	55.4	55.4	55.4	75	47.6	1	6	315	0.00	30.028 
23:00	55.3	55.3	55.3	75	47.5	1	4	315	0.00	30.032 
23:05	55.0	55.0	55.0	75	47.2	1	6	338	0.00	30.032 
23:10	54.7	54.7	54.7	76	47.3	2	6	292	0.00	30.032 
23:15	54.4	54.4	54.4	76	47.0	2	3	292	0.00	30.032 
23:20	54.1	54.1	54.1	77	47.0	1	5	292	0.00	30.032 
23:25	53.8	53.8	53.8	78	47.1	1	3	315	0.00	30.032 
23:30	53.5	53.5	53.5	78	46.8	0	1	315	0.00	30.030 
23:35	53.2	53.2	53.2	79	46.9	0	2	315	0.00	30.030 
23:40	53.1	53.1	53.1	80	47.1	0	1	315	0.00	30.030 
23:45	52.9	52.9	52.9	80	46.9	0	3	315	0.00	30.029 
23:50	52.8	52.8	52.8	80	46.8	0	2	315	0.00	30.029 
23:55	52.6	52.6	52.6	81	46.9	0	2	315	0.00	30.029 

CoCoRaHS
IN-AL-39
A2 Web Hosting
Creative Commons License
GoDaddy
search engine by freefind advanced

loaded 2018-11-13 16:57:48 • last modified 2010-11-18 10:43:29
Privacy PolicyDisclaimer
• wx.awcolley.com is powered by PmWiki v.2002016 •
• all content (unless otherwise noted) © 2018 A W Colley